Time;durP1;ratioP1;P1;durP2;ratioP2;P2;SDS_P1;SDS_P2;PMS_P1;PMS_P2;Temp;Humidity;BMP_temperature;BMP_pressure;BME280_temperature;BME280_humidity;BME280_pressure;Samples;Min_cycle;Max_cycle;Signal;HPM_P1;HPM_P2
2023/09/13 00:01:51;;;;;;;13.73;11.00;;;18.80;99.90;;;;;;5000339;28;20022;-82
2023/09/13 00:04:17;;;;;;;13.73;9.85;;;18.80;99.90;;;;;;5001991;28;20529;-81
2023/09/13 00:06:43;;;;;;;14.65;10.40;;;18.80;99.90;;;;;;4996471;28;20410;-83
2023/09/13 00:09:08;;;;;;;13.63;10.73;;;18.70;99.90;;;;;;5001282;28;20034;-81
2023/09/13 00:11:37;;;;;;;16.27;10.35;;;18.70;99.90;;;;;;5003312;28;20033;-82
2023/09/13 00:14:04;;;;;;;17.10;10.52;;;18.60;99.90;;;;;;4998296;28;20472;-82
2023/09/13 00:16:30;;;;;;;15.40;10.45;;;18.60;99.90;;;;;;4996784;28;20045;-83
2023/09/13 00:18:56;;;;;;;15.25;10.50;;;18.60;99.90;;;;;;4991267;28;20034;-81
2023/09/13 00:21:21;;;;;;;18.70;11.20;;;18.50;99.90;;;;;;5002503;28;20585;-82
2023/09/13 00:23:47;;;;;;;15.02;10.60;;;18.50;99.90;;;;;;5001254;28;20037;-83
2023/09/13 00:26:14;;;;;;;12.27;10.85;;;18.50;99.90;;;;;;4998833;28;20033;-82
2023/09/13 00:28:40;;;;;;;13.60;10.32;;;18.40;99.90;;;;;;5021255;28;20037;-81
2023/09/13 00:31:09;;;;;;;13.88;10.40;;;18.40;99.90;;;;;;4993324;28;20034;-81
2023/09/13 00:33:35;;;;;;;14.63;10.77;;;18.40;99.90;;;;;;5014099;28;20045;-82
2023/09/13 00:36:01;;;;;;;13.20;10.60;;;18.40;99.90;;;;;;5003417;28;20049;-82
2023/09/13 00:38:27;;;;;;;13.85;10.95;;;18.30;99.90;;;;;;4997247;28;20026;-81
2023/09/13 00:40:53;;;;;;;15.77;10.93;;;18.20;99.90;;;;;;4996257;28;20589;-81
2023/09/13 00:43:19;;;;;;;14.70;11.18;;;18.20;99.90;;;;;;5015770;28;20034;-81
2023/09/13 00:45:47;;;;;;;14.25;10.65;;;18.20;99.90;;;;;;4979310;28;20035;-82
2023/09/13 00:48:35;;;;;;;15.07;11.15;;;18.20;99.90;;;;;;4990770;28;20061;-80
2023/09/13 00:51:02;;;;;;;18.50;11.23;;;18.20;99.90;;;;;;5017597;28;20034;-82
2023/09/13 00:53:31;;;;;;;13.45;11.13;;;18.20;99.90;;;;;;4999195;28;20408;-81
2023/09/13 00:55:57;;;;;;;17.33;10.68;;;18.10;99.90;;;;;;4995257;28;20033;-82
2023/09/13 00:58:24;;;;;;;12.75;10.93;;;18.10;99.90;;;;;;5017071;28;20210;-82
2023/09/13 01:00:55;;;;;;;16.60;11.68;;;18.10;99.90;;;;;;4990969;28;20089;-82
2023/09/13 01:03:22;;;;;;;12.68;10.75;;;18.10;99.90;;;;;;4990793;28;20049;-81
2023/09/13 01:05:52;;;;;;;17.20;12.98;;;18.10;99.90;;;;;;4996389;28;20064;-82
2023/09/13 01:08:19;;;;;;;14.90;11.88;;;18.20;99.90;;;;;;4995192;28;20571;-81
2023/09/13 01:10:47;;;;;;;14.50;12.43;;;18.10;99.90;;;;;;4986816;28;20031;-82
2023/09/13 01:13:13;;;;;;;14.98;12.73;;;18.20;99.90;;;;;;4986980;28;20520;-82
2023/09/13 01:15:56;;;;;;;13.35;11.10;;;18.10;99.90;;;;;;4997745;28;20397;-83
2023/09/13 01:18:38;;;;;;;13.73;11.65;;;18.10;99.90;;;;;;4997427;28;20026;-82
2023/09/13 01:21:09;;;;;;;13.30;11.20;;;18.10;99.90;;;;;;4997156;28;20035;-80
2023/09/13 01:23:59;;;;;;;12.93;10.68;;;18.20;99.90;;;;;;5006517;28;20026;-82
2023/09/13 01:26:44;;;;;;;18.27;11.45;;;18.10;99.90;;;;;;4992873;28;20018;-81
2023/09/13 01:29:14;;;;;;;16.60;10.63;;;18.10;99.90;;;;;;4996520;28;20109;-81
2023/09/13 01:31:44;;;;;;;16.50;11.23;;;18.10;99.90;;;;;;4997589;28;20034;-80
2023/09/13 01:34:10;;;;;;;16.30;12.02;;;18.10;99.90;;;;;;5000024;28;20625;-80
2023/09/13 01:36:37;;;;;;;13.13;11.38;;;18.00;99.90;;;;;;4992805;28;20062;-82
2023/09/13 01:39:05;;;;;;;12.48;10.75;;;18.00;99.90;;;;;;5003814;28;20167;-82
2023/09/13 01:41:37;;;;;;;13.88;11.20;;;17.90;99.90;;;;;;4994562;28;20023;-80
2023/09/13 01:44:04;;;;;;;12.25;10.00;;;17.90;99.90;;;;;;4986752;28;20139;-81
2023/09/13 01:46:41;;;;;;;12.90;9.98;;;17.90;99.90;;;;;;4995722;28;20030;-82
2023/09/13 01:49:08;;;;;;;12.50;10.65;;;17.80;99.90;;;;;;5004869;28;20069;-81
2023/09/13 01:51:34;;;;;;;15.32;11.10;;;17.80;99.90;;;;;;5001100;28;20034;-82
2023/09/13 01:54:00;;;;;;;13.18;10.88;;;17.80;99.90;;;;;;4997257;28;20593;-82
2023/09/13 01:56:25;;;;;;;11.32;9.93;;;17.80;99.90;;;;;;5015225;28;20057;-82
2023/09/13 01:58:51;;;;;;;13.68;10.07;;;17.80;99.90;;;;;;4996082;28;20054;-82
2023/09/13 02:01:17;;;;;;;13.88;10.85;;;17.70;99.90;;;;;;5001144;28;20105;-81
2023/09/13 02:03:44;;;;;;;13.82;10.38;;;17.80;99.90;;;;;;4994750;28;20094;-81
2023/09/13 02:06:11;;;;;;;14.43;10.50;;;17.80;99.90;;;;;;4986816;28;20491;-82
2023/09/13 02:08:38;;;;;;;13.70;11.55;;;17.80;99.90;;;;;;4998973;28;20058;-82
2023/09/13 02:11:06;;;;;;;13.50;10.82;;;17.80;99.90;;;;;;4998883;28;20038;-81
2023/09/13 02:13:32;;;;;;;14.07;10.75;;;17.80;99.90;;;;;;4988589;28;20030;-81
2023/09/13 02:15:59;;;;;;;14.38;10.88;;;17.80;99.90;;;;;;4995372;28;20594;-82
2023/09/13 02:18:43;;;;;;;14.23;11.65;;;17.80;99.90;;;;;;4998153;28;20041;-82
2023/09/13 02:21:10;;;;;;;13.77;11.70;;;17.80;99.90;;;;;;4988484;28;20038;-81
2023/09/13 02:23:35;;;;;;;16.70;11.40;;;17.80;99.90;;;;;;5005742;28;20088;-81
2023/09/13 02:26:02;;;;;;;15.27;11.70;;;17.90;99.90;;;;;;4991490;28;20664;-81
2023/09/13 02:28:29;;;;;;;13.77;11.07;;;17.90;99.90;;;;;;4999317;28;20058;-81
2023/09/13 02:30:56;;;;;;;15.60;11.77;;;17.90;99.90;;;;;;4996561;28;20126;-81
2023/09/13 02:33:21;;;;;;;14.50;12.15;;;17.90;99.90;;;;;;5000099;28;20058;-82
2023/09/13 02:35:47;;;;;;;17.52;11.57;;;17.90;99.90;;;;;;4998025;28;20073;-80
2023/09/13 02:38:13;;;;;;;15.35;11.50;;;17.90;99.90;;;;;;5000921;28;20021;-81
2023/09/13 02:40:39;;;;;;;13.82;10.38;;;17.90;99.90;;;;;;4993386;28;20106;-81
2023/09/13 02:43:05;;;;;;;16.50;11.35;;;17.90;99.90;;;;;;4991727;28;20536;-81
2023/09/13 02:45:30;;;;;;;15.13;10.30;;;17.90;99.90;;;;;;4995035;28;20057;-80
2023/09/13 02:47:56;;;;;;;15.02;10.02;;;17.90;99.90;;;;;;4998855;28;20049;-83
2023/09/13 02:50:22;;;;;;;12.93;10.65;;;17.80;99.90;;;;;;5005384;28;20027;-82
2023/09/13 02:52:48;;;;;;;16.35;10.57;;;17.80;99.90;;;;;;5004391;28;20370;-82
2023/09/13 02:55:13;;;;;;;18.77;12.13;;;17.90;99.90;;;;;;5000882;28;20175;-81
2023/09/13 02:57:39;;;;;;;14.68;10.52;;;17.90;99.90;;;;;;5013998;28;20146;-82
2023/09/13 03:00:06;;;;;;;14.38;11.40;;;17.90;99.90;;;;;;5004744;28;20095;-80
2023/09/13 03:02:36;;;;;;;12.18;10.05;;;17.90;99.90;;;;;;4999519;28;20037;-81
2023/09/13 03:05:05;;;;;;;16.73;11.02;;;17.90;99.90;;;;;;4999327;28;20026;-81
2023/09/13 03:07:32;;;;;;;13.50;10.82;;;17.90;99.90;;;;;;5015528;28;20022;-81
2023/09/13 03:09:58;;;;;;;14.05;10.00;;;17.90;99.90;;;;;;5013675;28;20042;-81
2023/09/13 03:12:25;;;;;;;16.75;11.25;;;17.80;99.90;;;;;;5013037;28;20030;-81
2023/09/13 03:14:50;;;;;;;12.77;10.23;;;17.80;99.90;;;;;;4986101;28;20022;-81
2023/09/13 03:17:16;;;;;;;14.57;10.73;;;17.80;99.90;;;;;;5015895;28;20029;-81
2023/09/13 03:19:42;;;;;;;16.30;11.55;;;17.80;99.90;;;;;;5009533;28;20228;-80
2023/09/13 03:22:09;;;;;;;15.25;10.48;;;17.80;99.90;;;;;;4985202;28;20089;-81
2023/09/13 03:24:35;;;;;;;15.13;11.63;;;17.80;99.90;;;;;;5011876;28;20087;-81
2023/09/13 03:27:02;;;;;;;12.13;10.05;;;17.80;99.90;;;;;;5011999;28;20042;-80
2023/09/13 03:29:28;;;;;;;18.10;10.65;;;17.80;99.90;;;;;;4987322;28;20029;-80
2023/09/13 03:31:55;;;;;;;12.52;9.68;;;17.80;99.90;;;;;;5018301;28;20072;-80
2023/09/13 03:34:21;;;;;;;12.90;10.52;;;17.80;99.90;;;;;;5015599;28;20510;-80
2023/09/13 03:36:47;;;;;;;12.65;9.77;;;17.90;99.90;;;;;;5012993;28;20068;-80
2023/09/13 03:39:13;;;;;;;12.32;10.05;;;17.90;99.90;;;;;;5009881;28;20077;-80
2023/09/13 03:41:40;;;;;;;10.50;9.43;;;17.90;99.90;;;;;;5009071;28;20030;-80
2023/09/13 03:44:07;;;;;;;15.25;10.07;;;17.80;99.90;;;;;;5015329;28;20033;-80
2023/09/13 03:46:34;;;;;;;11.40;8.90;;;17.80;99.90;;;;;;5003116;28;20037;-80
2023/09/13 03:49:00;;;;;;;10.95;9.27;;;17.80;99.90;;;;;;4992329;28;20104;-80
2023/09/13 03:51:26;;;;;;;12.15;9.63;;;17.80;99.90;;;;;;4993456;28;20510;-80
2023/09/13 03:53:52;;;;;;;13.95;9.75;;;17.80;99.90;;;;;;4995439;28;20034;-81
2023/09/13 03:56:18;;;;;;;14.32;10.32;;;17.80;99.90;;;;;;4982154;28;20034;-80
2023/09/13 03:58:43;;;;;;;15.55;10.32;;;17.80;99.90;;;;;;5004073;28;20038;-80
2023/09/13 04:01:10;;;;;;;9.85;8.50;;;17.80;99.90;;;;;;5009398;28;20042;-80
2023/09/13 04:03:36;;;;;;;11.85;9.60;;;17.80;99.90;;;;;;5004696;28;20019;-80
2023/09/13 04:06:02;;;;;;;11.00;8.55;;;17.70;99.90;;;;;;5014162;28;20097;-80
2023/09/13 04:08:28;;;;;;;11.25;9.05;;;17.80;99.90;;;;;;5001850;28;20076;-80
2023/09/13 04:10:55;;;;;;;12.30;10.13;;;17.70;99.90;;;;;;5008315;28;20075;-80
2023/09/13 04:13:20;;;;;;;12.63;10.45;;;17.80;99.90;;;;;;4996533;28;20026;-80
2023/09/13 04:15:46;;;;;;;11.48;9.57;;;17.70;99.90;;;;;;5018418;28;20057;-80
2023/09/13 04:18:13;;;;;;;13.85;9.52;;;17.60;99.90;;;;;;4987424;28;20037;-80
2023/09/13 04:20:39;;;;;;;10.32;9.10;;;17.60;99.90;;;;;;5012820;28;20119;-79
2023/09/13 04:23:05;;;;;;;11.93;8.70;;;17.50;99.90;;;;;;5017443;28;20486;-80
2023/09/13 04:25:31;;;;;;;11.10;8.73;;;17.50;99.90;;;;;;4985064;28;20414;-80
2023/09/13 04:27:57;;;;;;;11.02;8.02;;;17.50;99.90;;;;;;5010684;28;20121;-80
2023/09/13 04:30:24;;;;;;;10.77;8.60;;;17.40;99.90;;;;;;4998055;28;20524;-80
2023/09/13 04:32:50;;;;;;;11.48;8.70;;;17.40;99.90;;;;;;5017884;28;20113;-80
2023/09/13 04:35:17;;;;;;;11.20;8.52;;;17.30;99.90;;;;;;5006377;28;20459;-81
2023/09/13 04:37:43;;;;;;;10.98;8.32;;;17.20;99.90;;;;;;5014737;28;20034;-81
2023/09/13 04:40:10;;;;;;;10.10;8.48;;;17.20;99.90;;;;;;4997174;28;20043;-81
2023/09/13 04:43:07;;;;;;;10.00;7.93;;;17.20;99.90;;;;;;4991919;28;20374;-81
2023/09/13 04:45:35;;;;;;;10.35;7.90;;;17.20;99.90;;;;;;4985875;28;20095;-81
2023/09/13 04:48:02;;;;;;;15.50;9.30;;;17.10;99.90;;;;;;4986553;28;20125;-82
2023/09/13 04:50:29;;;;;;;13.27;9.15;;;17.20;99.90;;;;;;5005184;28;20317;-82
2023/09/13 04:52:54;;;;;;;10.80;9.02;;;17.30;99.90;;;;;;4995768;28;20142;-82
2023/09/13 04:55:23;;;;;;;12.65;9.45;;;17.20;99.90;;;;;;5004605;28;20038;-82
2023/09/13 04:57:50;;;;;;;12.95;9.60;;;17.20;99.90;;;;;;5004305;28;20041;-82
2023/09/13 05:00:16;;;;;;;10.52;9.10;;;17.20;99.90;;;;;;5006204;28;20396;-82
2023/09/13 05:02:42;;;;;;;13.55;8.68;;;17.20;99.90;;;;;;5007970;28;20114;-82
2023/09/13 05:05:09;;;;;;;11.30;9.02;;;17.20;99.90;;;;;;4990770;28;20125;-82
2023/09/13 05:07:34;;;;;;;10.80;8.52;;;17.20;99.90;;;;;;4994274;28;20053;-82
2023/09/13 05:10:00;;;;;;;12.00;8.55;;;17.20;99.90;;;;;;4995758;28;20058;-82
2023/09/13 05:12:26;;;;;;;10.32;8.68;;;17.30;99.90;;;;;;4974096;28;20030;-82
2023/09/13 05:14:52;;;;;;;11.38;8.82;;;17.30;99.90;;;;;;5006747;28;20411;-82
2023/09/13 05:17:18;;;;;;;10.05;8.63;;;17.40;99.90;;;;;;4988922;28;20041;-82
2023/09/13 05:19:43;;;;;;;10.30;9.05;;;17.40;99.90;;;;;;4999545;28;20022;-81
2023/09/13 05:22:09;;;;;;;10.75;8.93;;;17.40;99.90;;;;;;4992256;28;20038;-82
2023/09/13 05:24:35;;;;;;;13.10;9.35;;;17.50;99.90;;;;;;5021660;28;20033;-81
2023/09/13 05:27:01;;;;;;;11.50;8.82;;;17.50;99.90;;;;;;4998611;28;20066;-81
2023/09/13 05:29:27;;;;;;;11.07;9.32;;;17.50;99.90;;;;;;5000098;28;20038;-80
2023/09/13 05:31:53;;;;;;;10.75;8.52;;;17.50;99.90;;;;;;4999827;28;20083;-81
2023/09/13 05:34:18;;;;;;;10.77;8.52;;;17.50;99.90;;;;;;4997613;28;20651;-82
2023/09/13 05:36:44;;;;;;;11.27;8.57;;;17.50;99.90;;;;;;4997780;28;20027;-82
2023/09/13 05:39:10;;;;;;;11.77;8.52;;;17.60;99.90;;;;;;5002458;28;20049;-80
2023/09/13 05:41:37;;;;;;;12.00;9.10;;;17.60;99.90;;;;;;4980609;28;20034;-82
2023/09/13 05:44:03;;;;;;;12.88;8.57;;;17.60;99.90;;;;;;4997322;28;20379;-81
2023/09/13 05:46:29;;;;;;;13.63;9.40;;;17.60;99.90;;;;;;4986024;28;20035;-80
2023/09/13 05:48:55;;;;;;;10.32;8.70;;;17.70;99.90;;;;;;4989636;28;20037;-81
2023/09/13 05:51:21;;;;;;;13.13;9.40;;;17.80;99.90;;;;;;4993799;28;20510;-80
2023/09/13 05:53:47;;;;;;;14.10;9.52;;;17.80;99.90;;;;;;4996755;28;20036;-81
2023/09/13 05:56:13;;;;;;;11.68;8.48;;;17.90;99.90;;;;;;5000685;28;20480;-80
2023/09/13 05:58:43;;;;;;;15.18;8.80;;;17.90;99.90;;;;;;4994503;28;20428;-81
2023/09/13 06:01:10;;;;;;;12.15;9.18;;;17.90;99.90;;;;;;4993698;28;20035;-80
2023/09/13 06:03:36;;;;;;;15.52;9.30;;;17.90;99.90;;;;;;4993602;28;20026;-80
2023/09/13 06:06:02;;;;;;;10.35;8.32;;;17.90;99.90;;;;;;4991536;28;20053;-80
2023/09/13 06:08:28;;;;;;;11.30;8.93;;;17.90;99.90;;;;;;4999991;28;20038;-80
2023/09/13 06:10:54;;;;;;;13.43;9.57;;;18.00;99.90;;;;;;4990806;28;20033;-81
2023/09/13 06:13:20;;;;;;;14.65;10.40;;;18.00;99.90;;;;;;4999880;28;20027;-80
2023/09/13 06:15:45;;;;;;;12.20;9.73;;;18.10;99.90;;;;;;4993751;28;20030;-81
2023/09/13 06:18:11;;;;;;;12.82;9.50;;;18.20;99.90;;;;;;4994949;28;20050;-81
2023/09/13 06:20:37;;;;;;;12.13;8.70;;;18.40;99.90;;;;;;4994956;28;20033;-81
2023/09/13 06:23:04;;;;;;;11.75;8.63;;;18.50;99.90;;;;;;4992955;28;20114;-80
2023/09/13 06:25:29;;;;;;;11.68;8.27;;;18.70;99.90;;;;;;4999702;28;20093;-81
2023/09/13 06:27:55;;;;;;;9.25;7.85;;;18.80;99.90;;;;;;4986928;28;20027;-81
2023/09/13 06:30:21;;;;;;;11.63;8.32;;;18.80;99.90;;;;;;4981585;28;20088;-81
2023/09/13 06:32:47;;;;;;;16.67;8.38;;;18.80;99.90;;;;;;5002512;28;20394;-80
2023/09/13 06:35:31;;;;;;;10.65;8.65;;;18.90;99.90;;;;;;4995296;28;20053;-80
2023/09/13 06:38:16;;;;;;;9.88;8.40;;;18.70;99.90;;;;;;4994267;28;20101;-80
2023/09/13 06:40:47;;;;;;;10.57;8.65;;;18.70;99.90;;;;;;5002643;28;20109;-80
2023/09/13 06:43:14;;;;;;;10.02;8.10;;;18.80;99.90;;;;;;4991789;28;20027;-80
2023/09/13 06:45:41;;;;;;;9.18;7.53;;;18.70;99.90;;;;;;4981028;28;20056;-81
2023/09/13 06:48:09;;;;;;;10.30;7.68;;;18.70;99.90;;;;;;4996265;28;20070;-80
2023/09/13 06:50:35;;;;;;;9.20;7.90;;;18.70;99.90;;;;;;4994940;28;20034;-80
2023/09/13 06:53:02;;;;;;;10.93;8.57;;;18.70;99.90;;;;;;4994857;28;20093;-80
2023/09/13 06:55:30;;;;;;;10.23;8.20;;;18.70;99.90;;;;;;4989280;28;20048;-80
2023/09/13 06:57:56;;;;;;;10.60;8.60;;;18.70;99.90;;;;;;5000833;28;20566;-82
2023/09/13 07:00:22;;;;;;;10.80;8.30;;;18.60;99.90;;;;;;4994225;28;20038;-80
2023/09/13 07:02:47;;;;;;;8.77;7.78;;;18.70;99.90;;;;;;4986750;28;20073;-80
2023/09/13 07:05:13;;;;;;;10.95;8.65;;;18.80;99.90;;;;;;4978185;28;20030;-81
2023/09/13 07:07:39;;;;;;;9.10;8.05;;;18.80;99.90;;;;;;4988984;28;20030;-80
2023/09/13 07:10:05;;;;;;;10.05;7.43;;;18.90;99.90;;;;;;4987299;28;20068;-78
2023/09/13 07:12:31;;;;;;;11.10;8.43;;;19.10;99.90;;;;;;4977812;28;20069;-82
2023/09/13 07:14:57;;;;;;;8.25;7.32;;;19.20;99.90;;;;;;4983434;28;20050;-81
2023/09/13 07:17:22;;;;;;;11.23;8.38;;;19.20;99.90;;;;;;4990350;28;20026;-83
2023/09/13 07:19:49;;;;;;;10.05;7.68;;;19.30;99.90;;;;;;4983785;28;20027;-82
2023/09/13 07:22:14;;;;;;;8.25;7.13;;;19.30;99.90;;;;;;4987917;28;20026;-82
2023/09/13 07:24:40;;;;;;;10.57;7.80;;;19.40;99.90;;;;;;4982599;28;20034;-81
2023/09/13 07:27:06;;;;;;;7.65;6.55;;;19.40;99.90;;;;;;4988216;28;20034;-80
2023/09/13 07:29:34;;;;;;;9.07;6.97;;;19.50;99.90;;;;;;4991932;28;20379;-80
2023/09/13 07:35:37;;;;;;;8.40;6.63;;;19.50;99.90;;;;;;4970727;28;20050;-80
2023/09/13 07:38:03;;;;;;;7.38;5.90;;;19.60;99.90;;;;;;4948089;28;20101;-81
2023/09/13 07:40:28;;;;;;;6.72;6.03;;;19.70;99.90;;;;;;4961662;28;20038;-82
2023/09/13 07:42:54;;;;;;;7.10;5.95;;;19.90;99.90;;;;;;4985188;28;20056;-79
2023/09/13 07:45:20;;;;;;;6.50;5.90;;;19.90;99.90;;;;;;4972584;28;20034;-80
2023/09/13 07:47:45;;;;;;;6.50;5.07;;;20.10;99.90;;;;;;4964725;28;20066;-81
2023/09/13 07:50:40;;;;;;;6.53;5.32;;;20.10;99.90;;;;;;4980055;28;20102;-82
2023/09/13 07:53:11;;;;;;;7.18;5.00;;;20.10;99.90;;;;;;4971175;28;20046;-84
2023/09/13 07:55:38;;;;;;;7.20;5.45;;;20.10;99.90;;;;;;4976124;28;20027;-82
2023/09/13 07:58:05;;;;;;;4.97;4.47;;;20.00;99.90;;;;;;4944681;28;20023;-81
2023/09/13 08:00:32;;;;;;;5.70;4.82;;;20.00;99.90;;;;;;4958507;28;20031;-81
2023/09/13 08:03:02;;;;;;;7.32;4.95;;;20.00;99.90;;;;;;4954467;28;20027;-79
2023/09/13 08:05:31;;;;;;;5.47;4.90;;;20.00;99.90;;;;;;4976257;28;20019;-80
2023/09/13 08:07:58;;;;;;;5.97;5.38;;;19.90;99.90;;;;;;4973042;28;20058;-80
2023/09/13 08:10:24;;;;;;;8.25;4.93;;;19.80;99.90;;;;;;4960316;28;20395;-81
2023/09/13 08:12:51;;;;;;;6.60;5.32;;;19.80;99.90;;;;;;4973265;28;20635;-80
2023/09/13 08:15:17;;;;;;;7.25;4.88;;;19.70;99.90;;;;;;4962309;28;20137;-81
2023/09/13 08:17:42;;;;;;;6.18;5.15;;;19.60;99.90;;;;;;4972436;28;20058;-80
2023/09/13 08:20:09;;;;;;;6.63;5.18;;;19.50;99.90;;;;;;4971546;28;20038;-81
2023/09/13 08:22:40;;;;;;;6.38;5.28;;;19.50;99.90;;;;;;4955803;28;20023;-82
2023/09/13 08:25:10;;;;;;;5.82;4.90;;;19.50;99.90;;;;;;4967349;28;20501;-82
2023/09/13 08:27:35;;;;;;;5.70;5.10;;;19.50;99.90;;;;;;4969202;28;20793;-81
2023/09/13 08:30:01;;;;;;;6.50;5.07;;;19.50;99.90;;;;;;4977451;28;20062;-81
2023/09/13 08:32:28;;;;;;;6.00;5.40;;;19.60;99.90;;;;;;4962323;28;20031;-80
2023/09/13 08:34:55;;;;;;;8.68;5.75;;;19.70;99.90;;;;;;4966644;28;20039;-80
2023/09/13 08:37:21;;;;;;;7.80;5.18;;;19.90;99.90;;;;;;4966313;28;20039;-80
2023/09/13 08:39:46;;;;;;;6.47;5.10;;;19.90;99.90;;;;;;4969329;28;20522;-81
2023/09/13 08:42:14;;;;;;;6.03;5.18;;;20.00;99.90;;;;;;4968208;28;20046;-81
2023/09/13 08:44:41;;;;;;;5.70;5.10;;;20.00;99.90;;;;;;4953039;28;20014;-80
2023/09/13 08:47:10;;;;;;;7.63;5.38;;;20.10;99.90;;;;;;4965894;28;20360;-80
2023/09/13 08:49:36;;;;;;;6.22;5.40;;;20.20;99.90;;;;;;4963525;28;20031;-80
2023/09/13 08:52:03;;;;;;;6.05;4.57;;;20.30;99.90;;;;;;4967671;28;20046;-80
2023/09/13 08:54:31;;;;;;;4.78;4.28;;;20.40;99.90;;;;;;4967100;28;20109;-80
2023/09/13 08:56:58;;;;;;;7.53;4.32;;;20.50;99.90;;;;;;4968157;28;20041;-80
2023/09/13 08:59:24;;;;;;;4.75;3.75;;;20.60;99.90;;;;;;4968992;28;20165;-80
2023/09/13 09:01:53;;;;;;;5.65;4.30;;;20.60;99.90;;;;;;4944834;28;20074;-81
2023/09/13 09:04:20;;;;;;;6.75;4.15;;;20.80;99.90;;;;;;4970873;28;20042;-78
2023/09/13 09:06:47;;;;;;;3.33;3.03;;;21.00;99.90;;;;;;4969932;28;20121;-78
2023/09/13 09:09:28;;;;;;;3.83;3.15;;;21.10;99.90;;;;;;4935856;28;20031;-82
2023/09/13 09:12:17;;;;;;;3.53;2.72;;;21.30;99.90;;;;;;4970260;28;20189;-82
2023/09/13 09:14:45;;;;;;;5.47;2.65;;;21.30;99.90;;;;;;4950461;28;20031;-79
2023/09/13 09:17:13;;;;;;;3.38;2.40;;;21.20;99.90;;;;;;4968863;28;20039;-82
2023/09/13 09:19:39;;;;;;;3.22;2.90;;;21.10;99.90;;;;;;4968932;28;20605;-81
2023/09/13 09:22:07;;;;;;;3.10;2.80;;;21.00;99.90;;;;;;4970561;28;20085;-81
2023/09/13 09:24:33;;;;;;;2.40;2.20;;;21.00;99.90;;;;;;4959631;28;20121;-80
2023/09/13 09:26:59;;;;;;;4.90;2.83;;;21.00;99.90;;;;;;4973482;28;20043;-79
2023/09/13 09:29:39;;;;;;;3.50;2.65;;;20.90;99.90;;;;;;4970512;28;20043;-80
2023/09/13 09:32:08;;;;;;;2.58;2.38;;;20.90;99.90;;;;;;4973260;28;20065;-80
2023/09/13 09:34:37;;;;;;;2.80;2.47;;;21.00;99.90;;;;;;4972012;28;20026;-80
2023/09/13 09:37:06;;;;;;;3.30;2.30;;;21.00;99.90;;;;;;4952043;28;20047;-80
2023/09/13 09:39:39;;;;;;;2.60;2.08;;;21.10;99.90;;;;;;4973377;28;20069;-80
2023/09/13 09:42:05;;;;;;;2.30;2.10;;;21.10;99.90;;;;;;4973509;28;20030;-80
2023/09/13 09:44:31;;;;;;;3.53;2.30;;;21.20;99.90;;;;;;4970718;28;20123;-80
2023/09/13 09:46:58;;;;;;;2.50;2.30;;;21.20;99.90;;;;;;4970644;28;20090;-81
2023/09/13 09:49:25;;;;;;;2.75;2.13;;;21.20;99.90;;;;;;4962876;28;20142;-78
2023/09/13 09:51:51;;;;;;;4.50;2.20;;;21.20;99.90;;;;;;4967616;28;20031;-81
2023/09/13 09:54:17;;;;;;;2.92;2.50;;;21.20;99.90;;;;;;4966743;28;20154;-81
2023/09/13 09:56:43;;;;;;;2.40;2.20;;;21.20;99.90;;;;;;4972052;28;20113;-79
2023/09/13 09:59:09;;;;;;;3.53;2.38;;;21.30;99.90;;;;;;4949224;28;20035;-81
2023/09/13 10:01:38;;;;;;;2.30;2.10;;;21.30;99.90;;;;;;4970090;28;20443;-79
2023/09/13 10:04:11;;;;;;;2.70;2.25;;;21.40;99.90;;;;;;4971750;28;20042;-80
2023/09/13 10:06:37;;;;;;;2.20;2.10;;;21.50;99.90;;;;;;4966499;28;20031;-79
2023/09/13 10:09:06;;;;;;;2.30;2.10;;;21.60;99.90;;;;;;4966218;28;20412;-80
2023/09/13 10:11:31;;;;;;;2.30;2.13;;;21.60;99.90;;;;;;4953154;28;20031;-81
2023/09/13 10:13:57;;;;;;;2.85;2.60;;;21.60;99.90;;;;;;4966362;28;20036;-80
2023/09/13 10:16:27;;;;;;;2.03;1.92;;;21.60;99.90;;;;;;4963741;28;20483;-80
2023/09/13 10:18:53;;;;;;;3.92;2.45;;;21.70;99.90;;;;;;4964148;28;20057;-82
2023/09/13 10:21:26;;;;;;;2.28;2.03;;;21.70;99.90;;;;;;4961256;28;20038;-80
2023/09/13 10:24:10;;;;;;;2.30;2.08;;;21.80;99.90;;;;;;4965182;28;20030;-81
2023/09/13 10:26:37;;;;;;;2.55;2.22;;;21.70;99.90;;;;;;4929624;28;20032;-80
2023/09/13 10:29:26;;;;;;;2.30;2.10;;;21.60;99.90;;;;;;4941133;28;20522;-79
2023/09/13 10:31:57;;;;;;;3.97;2.20;;;21.50;99.90;;;;;;4951836;28;20019;-79
2023/09/13 10:34:27;;;;;;;3.70;2.55;;;21.50;99.90;;;;;;4961372;28;20391;-79
2023/09/13 10:37:04;;;;;;;4.07;2.17;;;21.50;99.90;;;;;;4965612;28;20050;-79
2023/09/13 10:39:37;;;;;;;2.60;2.30;;;21.50;99.90;;;;;;4946382;28;20085;-79
2023/09/13 10:42:06;;;;;;;3.30;2.17;;;21.60;99.90;;;;;;4951861;28;20031;-79
2023/09/13 10:44:34;;;;;;;2.25;2.10;;;21.70;99.90;;;;;;4942181;28;20616;-82
2023/09/13 10:47:01;;;;;;;5.00;2.35;;;21.70;99.90;;;;;;4945358;28;20050;-79
2023/09/13 10:49:47;;;;;;;3.25;2.35;;;21.60;99.90;;;;;;4962901;28;20090;-78
2023/09/13 10:52:14;;;;;;;2.40;2.17;;;21.60;99.90;;;;;;4948676;28;20388;-78
2023/09/13 10:54:41;;;;;;;2.55;2.35;;;21.60;99.90;;;;;;4963905;28;20034;-79
2023/09/13 10:57:09;;;;;;;2.58;2.28;;;21.70;99.90;;;;;;4965959;28;20031;-78
2023/09/13 10:59:37;;;;;;;2.63;2.00;;;21.70;99.90;;;;;;4967341;28;20142;-78
2023/09/13 11:02:05;;;;;;;2.30;2.10;;;21.80;99.90;;;;;;4952257;28;20023;-78
2023/09/13 11:04:31;;;;;;;2.20;2.00;;;21.80;99.90;;;;;;4964699;28;20711;-78
2023/09/13 11:06:58;;;;;;;3.35;2.58;;;21.80;99.90;;;;;;4952097;28;20188;-79
2023/09/13 11:09:30;;;;;;;2.55;2.35;;;21.80;99.90;;;;;;4963067;28;20034;-78
2023/09/13 11:11:57;;;;;;;4.88;2.65;;;21.80;99.90;;;;;;4954523;28;20031;-78
2023/09/13 11:14:30;;;;;;;2.78;2.58;;;21.80;99.90;;;;;;4975164;28;20030;-79
2023/09/13 11:17:07;;;;;;;2.92;2.40;;;21.90;99.90;;;;;;4977113;28;20033;-78
2023/09/13 11:19:33;;;;;;;2.63;2.22;;;22.00;99.90;;;;;;4982709;28;20518;-79
2023/09/13 11:22:02;;;;;;;2.95;2.75;;;22.20;99.90;;;;;;4976835;28;20019;-80
2023/09/13 11:24:47;;;;;;;3.22;2.45;;;22.30;99.90;;;;;;4969104;28;20735;-79
2023/09/13 11:27:15;;;;;;;3.15;2.60;;;22.30;99.90;;;;;;4968315;28;20043;-79
2023/09/13 11:29:46;;;;;;;4.72;3.47;;;22.40;99.90;;;;;;4971854;28;20026;-79
2023/09/13 11:32:26;;;;;;;3.10;2.80;;;22.40;99.90;;;;;;4974938;28;20066;-79
2023/09/13 11:34:56;;;;;;;3.22;2.92;;;22.50;99.90;;;;;;4970053;28;20050;-81
2023/09/13 11:37:25;;;;;;;2.92;2.72;;;22.60;99.90;;;;;;4972831;28;20066;-80
2023/09/13 11:40:10;;;;;;;3.88;2.88;;;22.50;99.90;;;;;;4969445;28;20053;-80
2023/09/13 11:42:36;;;;;;;2.83;2.63;;;22.50;99.90;;;;;;4974600;28;20031;-80
2023/09/13 11:45:09;;;;;;;3.30;3.00;;;22.40;99.90;;;;;;4968071;28;20030;-80
2023/09/13 11:47:36;;;;;;;3.58;3.28;;;22.30;99.90;;;;;;4974611;28;20022;-80
2023/09/13 11:50:03;;;;;;;3.72;3.40;;;22.10;99.90;;;;;;4955529;28;20045;-80
2023/09/13 11:53:07;;;;;;;4.32;3.67;;;22.00;99.90;;;;;;4953203;28;20486;-80
2023/09/13 11:55:37;;;;;;;5.40;3.47;;;21.80;99.90;;;;;;4972611;28;20091;-80
2023/09/13 11:58:03;;;;;;;3.35;3.03;;;21.70;99.90;;;;;;4975362;28;20539;-80
2023/09/13 12:00:29;;;;;;;3.10;2.80;;;21.70;99.90;;;;;;4971870;28;20114;-79
2023/09/13 12:02:56;;;;;;;3.40;3.15;;;21.70;99.90;;;;;;4966019;28;20050;-80
2023/09/13 12:05:24;;;;;;;3.30;2.95;;;21.70;99.90;;;;;;4972018;28;20494;-81
2023/09/13 12:07:50;;;;;;;3.80;3.45;;;21.80;99.90;;;;;;4953093;28;20027;-80
2023/09/13 12:10:16;;;;;;;4.38;3.70;;;21.80;99.90;;;;;;4971799;28;20030;-81
2023/09/13 12:12:42;;;;;;;5.30;3.92;;;21.80;99.90;;;;;;4971028;28;20031;-81
2023/09/13 12:15:15;;;;;;;7.80;3.42;;;21.80;99.90;;;;;;4971450;28;20399;-81
2023/09/13 12:17:41;;;;;;;4.07;3.70;;;21.80;99.90;;;;;;4969415;28;20133;-79
2023/09/13 12:20:10;;;;;;;4.43;4.03;;;21.90;99.90;;;;;;4967895;28;20427;-81
2023/09/13 12:22:41;;;;;;;4.38;3.97;;;21.80;99.90;;;;;;4948896;28;20050;-79
2023/09/13 12:25:11;;;;;;;4.38;3.97;;;21.80;99.90;;;;;;4962760;28;20056;-81
2023/09/13 12:27:37;;;;;;;4.53;3.72;;;21.80;99.90;;;;;;4966403;28;20038;-82
2023/09/13 12:30:07;;;;;;;4.80;4.38;;;21.70;99.90;;;;;;4967245;28;20133;-79
2023/09/13 12:32:34;;;;;;;5.78;4.25;;;21.70;99.90;;;;;;4962437;28;20031;-81
2023/09/13 12:35:01;;;;;;;4.63;4.22;;;21.70;99.90;;;;;;4969562;28;20061;-79
2023/09/13 12:37:27;;;;;;;5.00;4.50;;;21.70;99.90;;;;;;4956238;28;20035;-79
2023/09/13 12:39:54;;;;;;;4.60;4.13;;;21.80;99.90;;;;;;4970602;28;20045;-81
2023/09/13 12:42:19;;;;;;;4.03;3.63;;;21.90;99.90;;;;;;4969013;28;20089;-80
2023/09/13 12:44:46;;;;;;;4.40;4.00;;;21.80;99.90;;;;;;4974874;28;20023;-81
2023/09/13 12:47:17;;;;;;;4.63;4.22;;;21.80;99.90;;;;;;4968667;28;20043;-79